Latest Weather Observations for Thredbo Top Station

IDN60801

Issued at 8:02 pm EST Tuesday 30 June 2015 (issued every 30 minutes, with the page automatically refreshed every 10 minutes)

About weather observations | Map of weather stations | Latest weather observations for NSW | Other Formats
Station Details ID: 071032 Name: THREDBO AWS Lat: -36.49 Lon: 148.29 Height: 1957.0 m
Data from the previous 72 hours. | See also: Recent months at Thredbo Top Station
Date/Time
EST
Temp
°C
App
Temp
°C
Dew
Point
Rel
Hum
%
Delta-T
°C
Wind Press
QNH
hPa
Press
MSL
hPa
Rain
since 9 am
mm
Dir
 
Spd
km/h
Gust
km/h
Spd
kts
Gust
kts
30/08:00pm -3.6 -8.2 -4.0 97 0.0 SSW 11 17 6 9 1025.1 1029.3 0.0
30/07:30pm -4.5 -8.6 -6.5 86 0.4 SSW 7 13 4 7 1025.0 1029.2 0.0
30/07:00pm -3.6 -6.2 -5.3 88 0.4 CALM 0 4 0 2 1024.7 1029.0 0.0
30/06:30pm -2.2 -5.2 -4.7 83 0.8 ENE 2 4 1 2 1024.5 1028.7 0.0
30/06:00pm -2.4 -5.1 -5.5 79 0.9 CALM 0 4 0 2 1024.4 1028.6 0.0
30/05:30pm -2.0 -5.4 -5.5 77 1.1 SE 4 7 2 4 1023.9 1028.2 0.0
30/05:00pm -1.9 -6.0 -9.0 58 2.1 SSW 6 11 3 6 1023.6 1027.8 0.0
30/04:30pm -0.8 -4.6 -4.0 79 1.1 S 7 9 4 5 1023.6 1027.8 0.0
30/04:00pm -0.5 -4.2 -3.0 83 0.9 S 7 11 4 6 1023.5 1027.7 0.0
30/03:30pm 0.4 -4.1 -3.0 78 1.3 SSW 11 15 6 8 1023.1 1027.3 0.0
30/03:00pm 2.1 -2.3 -10.4 39 4.0 ESE 7 13 4 7 1022.9 1027.1 0.0
30/02:30pm 3.3 -0.5 -16.9 21 5.6 E 2 6 1 3 1022.7 1026.9 0.0
30/02:00pm 3.1 -1.1 -16.5 22 5.4 W 4 11 2 6 1022.9 1027.1 0.0
30/01:30pm 2.8 -2.3 -15.7 24 5.2 WNW 9 17 5 9 1023.0 1027.2 0.0
30/01:00pm 2.8 -3.5 -15.7 24 5.2 NNW 15 24 8 13 1023.1 1027.3 0.0
30/12:30pm 3.1 -3.6 -17.1 21 5.5 NNW 17 24 9 13 1023.5 1027.7 0.0
30/12:00pm 2.8 -3.9 -16.2 23 5.3 NNW 17 26 9 14 1024.0 1028.3 0.0
30/11:30am 2.9 -3.7 -14.2 27 5.0 NW 17 26 9 14 1024.4 1028.6 0.0
30/11:00am 2.2 -6.0 -13.1 31 4.5 NNW 26 33 14 18 1024.7 1029.0 0.0
30/10:30am 1.3 -8.3 -13.9 31 4.3 NW 33 39 18 21 1025.2 1029.5 0.0
30/10:00am 1.3 -8.1 -13.5 32 4.2 NW 32 44 17 24 1025.2 1029.5 0.0
30/09:30am 0.6 -10.2 -16.2 27 4.4 NNW 39 46 21 25 1025.3 1029.6 0.0
30/09:00am 0.4 -10.5 -17.8 24 4.6 NNW 39 43 21 23 1025.5 1029.8 0.0
30/08:30am -0.3 -10.4 -17.4 26 4.3 NNW 35 41 19 22 1025.6 1029.9 0.0
30/08:00am -0.1 -10.3 -20.3 20 4.7 NW 35 46 19 25 1025.8 1030.0 0.0
30/07:30am -1.3 -11.1 -18.3 26 4.0 NW 33 43 18 23 1025.9 1030.2 0.0
30/07:00am -1.8 -11.5 -9.6 55 2.3 NW 35 43 19 23 1026.0 1030.3 0.0
30/06:30am -2.6 -11.2 -4.3 88 0.5 NW 32 39 17 21 1025.9 1030.2 0.0
30/06:00am -2.4 -11.0 -4.1 88 0.5 NW 32 39 17 21 1025.8 1030.0 0.0
30/05:30am -2.1 -11.6 -4.0 87 0.6 NNW 37 46 20 25 1025.6 1029.9 0.0
30/05:00am -2.2 -11.3 -3.8 89 0.5 NNW 35 46 19 25 1025.6 1029.9 0.0
30/04:30am -2.0 -11.0 -5.8 75 1.2 NNW 33 39 18 21 1025.9 1030.2 0.0
30/04:00am -3.3 -12.2 -5.3 86 0.5 N 33 41 18 22 1026.0 1030.3 0.0
30/03:30am -2.0 -11.7 -9.8 55 2.3 N 35 44 19 24 1026.3 1030.6 0.0
30/03:00am -1.0 -11.1 -17.2 28 4.0 NNW 35 44 19 24 1026.6 1030.9 0.0
30/02:30am -1.2 -10.7 -13.0 40 3.2 N 33 35 18 19 1026.7 1031.0 0.0
30/02:00am -1.2 -9.1 -14.3 36 3.4 N 24 26 13 14 1026.9 1031.2 0.0
30/01:30am -1.6 -10.9 -11.7 46 2.8 N 32 33 17 18 1026.9 1031.2 0.0
30/01:00am -1.6 -10.3 -15.7 33 3.5 NNW 28 32 15 17 1027.0 1031.3 0.0
30/12:30am -3.7 -11.3 -15.3 40 2.8 NNW 22 24 12 13 1027.4 1031.7 0.0
30/12:00am -3.0 -10.2 -15.0 39 2.9 NNW 20 24 11 13 1027.7 1032.1 0.0
 
Date/Time
EST
Temp
°C
App
Temp
°C
Dew
Point
Rel
Hum
%
Delta-T
°C
Wind Press
QNH
hPa
Press
MSL
hPa
Rain
since 9 am
mm
Dir
 
Spd
km/h
Gust
km/h
Spd
kts
Gust
kts
29/11:30pm -1.1 -7.7 -15.7 32 3.7 N 17 19 9 10 1028.0 1032.4 0.0
29/11:00pm -1.0 -7.6 -15.9 31 3.8 N 17 20 9 11 1028.2 1032.5 0.0
29/10:30pm -0.5 -7.5 -15.5 31 3.9 N 19 24 10 13 1028.6 1033.0 0.0
29/10:00pm -1.5 -8.1 -14.9 35 3.4 N 17 20 9 11 1029.0 1033.4 0.0
29/09:30pm -0.6 -7.6 -15.6 31 3.9 N 19 22 10 12 1029.3 1033.7 0.0
29/09:00pm 0.3 -5.5 -14.8 31 4.1 NNE 13 20 7 11 1029.5 1034.0 0.0
29/08:30pm -0.3 -6.8 -13.9 35 3.7 N 17 19 9 10 1029.6 1034.1 0.0
29/08:00pm -1.2 -8.1 -13.0 40 3.2 N 19 20 10 11 1029.9 1034.3 0.0
29/07:30pm -3.2 -9.3 -12.1 50 2.3 N 15 17 8 9 1029.9 1034.3 0.0
29/07:00pm -2.8 -7.7 -11.7 50 2.4 NNW 9 15 5 8 1029.9 1034.3 0.0
29/06:30pm -2.5 -7.8 -12.0 48 2.6 NNW 11 13 6 7 1029.8 1034.2 0.0
29/06:00pm -1.6 -6.0 -12.5 43 3.0 NNW 6 11 3 6 1029.5 1034.0 0.0
29/05:30pm -1.8 -6.2 -12.4 44 2.9 NNW 6 11 3 6 1029.4 1033.8 0.0
29/05:00pm 1.5 -2.8 -11.6 37 4.0 NNW 6 11 3 6 1029.2 1033.6 0.0
29/04:30pm 2.8 -0.9 -9.1 41 4.0 N 4 6 2 3 1029.1 1033.5 0.0
29/04:00pm 5.5 2.1 -9.5 33 4.9 NNE 2 6 1 3 1029.0 1033.4 0.0
29/03:30pm 6.5 2.7 -9.8 30 5.4 ENE 4 6 2 3 1029.1 1033.5 0.0
29/03:00pm 7.3 3.5 -10.0 28 5.8 ENE 4 6 2 3 1028.8 1033.2 0.0
29/02:30pm 7.5 3.6 -11.7 24 6.2 E 4 9 2 5 1028.8 1033.2 0.0
29/02:00pm 7.5 3.1 -12.3 23 6.3 E 6 9 3 5 1029.0 1033.4 0.0
29/01:30pm 8.1 3.8 -11.2 24 6.4 E 6 9 3 5 1029.1 1033.5 0.0
29/01:00pm 7.9 3.5 -13.0 21 6.5 ESE 6 9 3 5 1029.3 1033.7 0.0
29/12:30pm 8.0 3.6 -12.4 22 6.5 E 6 9 3 5 1029.6 1034.1 0.0
29/12:00pm 7.5 3.1 -12.8 22 6.3 E 6 9 3 5 1030.1 1034.5 0.0
29/11:30am 7.8 3.4 -13.1 21 6.6 E 6 9 3 5 1030.6 1035.0 0.0
29/11:00am 7.2 2.8 -13.1 22 6.3 ESE 6 11 3 6 1031.1 1035.6 0.0
29/10:30am 7.0 2.5 -15.0 19 6.5 ENE 6 9 3 5 1031.5 1036.0 0.0
29/10:00am 6.7 2.5 -16.6 17 6.5 E 4 7 2 4 1031.9 1036.4 0.0
29/09:30am 6.7 2.9 -16.6 17 6.6 E 2 4 1 2 1032.0 1036.6 0.0
29/09:00am 4.8 1.4 -15.1 22 5.9 CALM 0 2 0 1 1032.0 1036.6 0.0
29/08:30am 2.5 -1.5 -13.3 30 4.7 NW 4 6 2 3 1032.0 1036.6 0.0
29/08:00am -0.7 -5.8 -14.9 33 3.7 NW 9 9 5 5 1032.0 1036.6 0.0
29/07:30am -2.1 -6.7 -16.9 31 3.6 NW 6 9 3 5 1032.0 1036.6 0.0
29/07:00am -2.1 -6.7 -16.9 31 3.5 NW 6 9 3 5 1031.8 1036.3 0.0
29/06:30am -3.0 -6.8 -17.0 33 3.3 W 2 4 1 2 1031.7 1036.2 0.0
29/06:00am -0.9 -5.8 -18.4 25 4.1 NW 7 9 4 5 1031.5 1036.0 0.0
29/05:30am 0.0 -4.9 -19.1 22 4.6 NW 7 9 4 5 1031.2 1035.7 0.0
29/05:00am -1.2 -7.5 -17.8 27 4.0 NW 15 17 8 9 1031.1 1035.6 0.0
29/04:30am -1.1 -7.1 -17.7 27 4.0 NW 13 15 7 8 1031.2 1035.7 0.0
29/04:00am -1.1 -6.6 -16.8 29 3.9 NW 11 13 6 7 1031.4 1035.8 0.0
29/03:30am -1.2 -7.1 -16.9 29 3.9 NW 13 17 7 9 1031.4 1035.8 0.0
29/03:00am -1.4 -8.1 -16.7 30 3.7 NNW 17 19 9 10 1031.7 1036.2 0.0
29/02:30am -1.9 -7.4 -16.4 32 3.6 NW 11 13 6 7 1031.7 1036.2 0.0
29/02:00am -1.0 -6.2 -17.2 28 3.9 NW 9 11 5 6 1031.6 1036.1 0.0
29/01:30am -0.5 -5.3 -17.6 26 4.2 NW 7 11 4 6 1031.6 1036.1 0.0
29/01:00am -1.0 -6.5 -16.3 30 3.8 NW 11 13 6 7 1031.6 1036.1 0.0
29/12:30am -1.5 -7.4 -16.0 32 3.6 NW 13 17 7 9 1031.7 1036.2 0.0
29/12:00am -1.7 -7.2 -15.8 33 3.5 NW 11 15 6 8 1031.9 1036.4 0.0
 
Date/Time
EST
Temp
°C
App
Temp
°C
Dew
Point
Rel
Hum
%
Delta-T
°C
Wind Press
QNH
hPa
Press
MSL
hPa
Rain
since 9 am
mm
Dir
 
Spd
km/h
Gust
km/h
Spd
kts
Gust
kts
28/11:30pm 0.1 -5.0 -15.8 29 4.2 NW 9 13 5 7 1032.2 1036.7 0.0
28/11:00pm -2.2 -7.2 -14.2 39 3.1 NW 9 11 5 6 1032.3 1036.8 0.0
28/10:30pm -2.1 -6.5 -13.9 40 3.1 NW 6 7 3 4 1032.3 1036.8 0.0
28/10:00pm -2.9 -7.0 -13.7 43 2.7 NW 4 7 2 4 1032.5 1037.0 0.0
28/09:30pm -2.5 -6.2 -14.8 38 3.1 W 2 4 1 2 1032.6 1037.1 0.0
28/09:00pm 0.2 -4.0 -16.1 28 4.2 SW 4 7 2 4 1032.6 1037.1 0.0
28/08:30pm 0.8 -3.4 -17.4 24 4.7 SW 4 7 2 4 1032.6 1037.1 0.0
28/08:00pm 1.1 -3.6 -19.3 20 5.0 SSW 6 11 3 6 1032.6 1037.1 0.0
28/07:30pm 0.9 -4.1 -21.3 17 5.2 SSW 7 9 4 5 1032.4 1036.9 0.0
28/07:00pm 1.0 -3.8 -21.9 16 5.2 SW 6 9 3 5 1032.0 1036.6 0.0
28/06:30pm 2.4 -3.8 -25.0 11 6.1 SW 13 15 7 8 1031.7 1036.2 0.0
28/06:00pm 1.6 -3.5 -15.8 26 4.7 SW 9 15 5 8 1031.4 1035.8 0.0
28/05:30pm 0.1 -4.2 -18.5 23 4.6 NNE 4 7 2 4 1031.1 1035.6 0.0
28/05:00pm 3.0 -1.6 -16.1 23 5.3 SW 6 11 3 6 1030.9 1035.4 0.0
28/04:30pm 3.9 -0.7 -16.4 21 5.8 SSW 6 9 3 5 1030.7 1035.1 0.0
28/04:00pm 6.4 1.0 -21.9 11 7.4 W 9 13 5 7 1030.2 1034.7 0.0
28/03:30pm 7.0 0.6 -19.5 13 7.5 WNW 15 20 8 11 1029.9 1034.3 0.0
28/03:00pm 7.5 1.5 -17.4 15 7.0 WNW 13 19 7 10 1029.6 1034.1 0.0
28/02:30pm 7.4 1.0 -19.2 13 7.2 NW 15 20 8 11 1029.5 1034.0 0.0
28/02:00pm 7.0 0.1 -21.4 11 7.6 NW 17 22 9 12 1029.6 1034.1 0.0
28/01:30pm 7.6 1.5 -19.9 12 7.3 WNW 13 22 7 12 1029.6 1034.1 0.0
28/01:00pm 7.4 0.9 -22.2 10 7.4 W 15 22 8 12 1030.0 1034.4 0.0
28/12:30pm 7.7 0.9 -19.9 12 7.4 W 17 24 9 13 1030.3 1034.8 0.0
28/12:00pm 7.8 1.1 -17.2 15 7.1 W 17 24 9 13 1030.7 1035.1 0.0
28/11:30am 8.2 0.9 -16.9 15 7.2 NW 20 28 11 15 1031.2 1035.7 0.0
28/11:00am 8.0 0.4 -17.0 15 7.1 NW 22 28 12 15 1031.6 1036.1 0.0
28/10:30am 7.7 0.4 -17.3 15 7.1 NW 20 26 11 14 1031.9 1036.4 0.0
28/10:00am 7.2 1.0 -15.5 18 6.6 NW 15 20 8 11 1031.9 1036.4 0.0
28/09:30am 6.8 -0.3 -16.5 17 6.6 NW 19 24 10 13 1031.8 1036.3 0.0
28/09:00am 6.0 -1.0 -15.8 19 6.5 NW 19 24 10 13 1031.7 1036.2 0.0
28/08:30am 4.1 -3.1 -16.2 21 5.8 NW 20 24 11 13 1031.8 1036.3 0.0
28/08:00am 3.1 -4.1 -16.5 22 5.4 NW 20 24 11 13 1031.7 1036.2 0.0
28/07:30am 1.7 -5.0 -16.7 24 4.9 NW 17 20 9 11 1031.4 1035.8 0.0
28/07:00am 0.8 -5.9 -16.9 25 4.6 WNW 17 20 9 11 1031.0 1035.5 0.0
28/06:30am 0.8 -6.5 -16.9 25 4.6 WNW 20 24 11 13 1030.6 1035.0 0.0
28/06:00am 1.4 -5.7 -17.4 23 4.9 WNW 19 22 10 12 1030.3 1034.8 0.0
28/05:30am 2.2 -4.9 -17.3 22 5.2 WNW 19 22 10 12 1030.0 1034.4 0.0
28/05:00am 3.1 -4.2 -18.2 19 5.6 WNW 20 24 11 13 1029.5 1034.0 0.0
28/04:30am 2.9 -5.2 -17.8 20 5.5 WNW 24 26 13 14 1029.3 1033.7 0.0
28/04:00am 3.2 -4.5 -18.2 19 5.7 WNW 22 30 12 16 1029.4 1033.8 0.0
28/03:30am 3.9 -4.2 -17.6 19 5.9 WNW 24 30 13 16 1029.4 1033.8 0.0
28/03:00am 4.0 -4.0 -17.5 19 5.9 WNW 24 26 13 14 1029.6 1034.1 0.0
28/02:30am 4.9 -3.2 -18.8 16 6.5 W 24 28 13 15 1029.8 1034.2 0.0
28/02:00am 4.6 -3.1 -18.3 17 6.3 W 22 30 12 16 1029.8 1034.2 0.0
28/01:30am 5.1 -2.6 -19.4 15 6.6 W 22 28 12 15 1029.9 1034.3 0.0
28/01:00am 5.5 -2.3 -19.8 14 6.8 W 22 28 12 15 1030.0 1034.4 0.0
28/12:30am 5.5 -2.6 -19.8 14 6.8 W 24 30 13 16 1030.0 1034.4 0.0
28/12:00am 5.6 -2.2 -19.8 14 6.8 W 22 30 12 16 1030.0 1034.4 0.0
 
Date/Time
EST
Temp
°C
App
Temp
°C
Dew
Point
Rel
Hum
%
Delta-T
°C
Wind Press
QNH
hPa
Press
MSL
hPa
Rain
since 9 am
mm
Dir
 
Spd
km/h
Gust
km/h
Spd
kts
Gust
kts
27/11:30pm 5.5 -2.2 -19.0 15 6.8 W 22 28 12 15 1030.1 1034.5 0.0
27/11:00pm 5.2 -2.9 -18.5 16 6.5 W 24 32 13 17 1030.2 1034.7 0.0
27/10:30pm 5.0 -2.7 -18.7 16 6.5 W 22 30 12 16 1030.3 1034.8 0.0
27/10:00pm 5.0 -2.7 -19.4 15 6.5 W 22 30 12 16 1030.4 1034.9 0.0
27/09:30pm 5.1 -2.2 -18.6 16 6.5 W 20 26 11 14 1030.4 1034.9 0.0
27/09:00pm 5.2 -2.0 -19.3 15 6.6 W 19 28 10 15 1030.3 1034.8 0.0
27/08:30pm 4.0 -4.0 -15.8 22 5.7 WNW 24 28 13 15 1030.4 1034.9 0.0

Other Formats:

Comma delimited format used in spreadsheet applications
http://www.bom.gov.au/fwo/IDN60801/IDN60801.95909.axf

JavaScript Object Notation format (JSON) in row-major order
http://www.bom.gov.au/fwo/IDN60801/IDN60801.95909.json